createdAt,value
2018-06-09T00:02:12.029Z,24.00
2018-06-09T00:04:40.605Z,23.90
2018-06-09T00:07:09.053Z,23.90
2018-06-09T00:09:37.596Z,23.90
2018-06-09T00:12:06.053Z,23.70
2018-06-09T00:14:34.484Z,23.60
2018-06-09T00:17:02.981Z,23.60
2018-06-09T00:19:31.476Z,23.60
2018-06-09T00:21:59.921Z,23.40
2018-06-09T00:26:56.521Z,23.30
2018-06-09T00:29:24.985Z,23.30
2018-06-09T00:31:53.465Z,23.20
2018-06-09T00:34:21.922Z,23.20
2018-06-09T00:36:50.404Z,23.10
2018-06-09T00:39:18.864Z,23.20
2018-06-09T00:41:47.309Z,23.20
2018-06-09T00:44:15.784Z,23.20
2018-06-09T00:46:44.240Z,23.30
2018-06-09T00:49:12.696Z,23.30
2018-06-09T00:51:41.155Z,23.40
2018-06-09T00:54:09.617Z,23.40
2018-06-09T00:56:44.469Z,23.40
2018-06-09T00:59:12.957Z,23.50
2018-06-09T01:01:41.425Z,23.50
2018-06-09T01:04:09.905Z,23.50
2018-06-09T01:06:38.465Z,23.40
2018-06-09T01:09:08.169Z,23.40
2018-06-09T01:11:36.905Z,23.40
2018-06-09T01:14:05.600Z,23.40
2018-06-09T01:16:34.048Z,23.40
2018-06-09T01:19:02.489Z,23.40
2018-06-09T01:21:30.951Z,23.40
2018-06-09T01:23:59.418Z,23.30
2018-06-09T01:26:27.864Z,23.30
2018-06-09T01:28:56.333Z,23.20
2018-06-09T01:31:24.793Z,23.20
2018-06-09T01:33:53.237Z,23.20
2018-06-09T01:36:21.669Z,23.10
2018-06-09T01:38:50.188Z,23.00
2018-06-09T01:41:18.638Z,22.90
2018-06-09T01:43:47.097Z,22.80
2018-06-09T01:46:15.549Z,22.80
2018-06-09T01:51:12.142Z,22.70
2018-06-09T01:53:40.605Z,22.70
2018-06-09T01:56:09.035Z,22.70
2018-06-09T01:58:37.534Z,22.60
2018-06-09T02:01:06.044Z,22.50
2018-06-09T02:03:34.497Z,22.30
2018-06-09T02:06:02.954Z,22.10
2018-06-09T02:08:31.396Z,22.10
2018-06-09T02:10:59.842Z,22.20
2018-06-09T02:14:57.696Z,22.20
2018-06-09T02:17:26.166Z,22.20
2018-06-09T02:19:54.643Z,22.20
2018-06-09T02:22:23.081Z,22.10
2018-06-09T02:24:51.600Z,22.10
2018-06-09T02:27:20.141Z,22.10
2018-06-09T02:32:16.784Z,22.10
2018-06-09T02:34:45.221Z,22.00
2018-06-09T02:37:13.682Z,21.90
2018-06-09T02:39:42.173Z,21.80
2018-06-09T02:42:10.625Z,21.90
2018-06-09T02:44:39.106Z,21.90
2018-06-09T02:49:35.669Z,21.90
2018-06-09T02:52:04.178Z,21.90
2018-06-09T02:54:32.629Z,21.90
2018-06-09T02:57:01.058Z,22.00
2018-06-09T02:59:29.504Z,22.00
2018-06-09T03:01:58.816Z,22.00
2018-06-09T03:04:27.305Z,22.00
2018-06-09T03:06:55.739Z,22.00
2018-06-09T03:09:24.213Z,21.80
2018-06-09T03:11:52.686Z,21.80
2018-06-09T03:14:21.121Z,21.90
2018-06-09T03:16:49.630Z,22.00
2018-06-09T03:19:18.086Z,21.90
2018-06-09T03:21:46.542Z,21.90
2018-06-09T03:24:15.026Z,21.90
2018-06-09T03:26:43.470Z,21.90
2018-06-09T03:29:11.933Z,21.90
2018-06-09T03:31:40.393Z,21.80
2018-06-09T03:34:08.838Z,21.50
2018-06-09T03:36:37.326Z,21.10
2018-06-09T03:39:07.389Z,21.00
2018-06-09T03:41:36.077Z,21.00
2018-06-09T03:44:04.570Z,21.10
2018-06-09T03:46:33.004Z,21.20
2018-06-09T03:49:01.461Z,21.20
2018-06-09T03:51:29.952Z,21.30
2018-06-09T03:53:58.402Z,21.30
2018-06-09T03:56:26.856Z,21.40
2018-06-09T03:58:55.306Z,21.60
2018-06-09T04:01:23.757Z,21.70
2018-06-09T04:03:52.201Z,21.80
2018-06-09T04:06:20.637Z,21.90
2018-06-09T04:08:49.133Z,22.00
2018-06-09T04:11:17.585Z,22.00
2018-06-09T04:18:42.350Z,22.20
2018-06-09T04:21:10.805Z,22.30
2018-06-09T04:23:39.249Z,22.10
2018-06-09T04:26:07.745Z,22.00
2018-06-09T04:28:36.223Z,22.20
2018-06-09T04:31:04.681Z,22.30
2018-06-09T04:33:33.161Z,22.40
2018-06-09T04:36:01.620Z,22.40
2018-06-09T04:38:30.079Z,22.40
2018-06-09T04:40:58.519Z,22.50
2018-06-09T04:43:26.962Z,22.50
2018-06-09T04:45:55.406Z,22.40
2018-06-09T04:50:52.161Z,22.60
2018-06-09T04:55:48.781Z,22.40
2018-06-09T04:58:17.218Z,22.30
2018-06-09T05:00:45.686Z,22.20
2018-06-09T05:03:14.133Z,22.20
2018-06-09T05:05:42.586Z,22.20
2018-06-09T05:08:11.041Z,22.10
2018-06-09T05:10:39.501Z,22.10
2018-06-09T05:13:07.950Z,22.00
2018-06-09T05:15:36.396Z,22.00
2018-06-09T05:18:05.217Z,22.00
2018-06-09T05:20:33.656Z,22.00
2018-06-09T05:23:02.138Z,22.10
2018-06-09T05:25:30.581Z,22.10
2018-06-09T05:27:59.029Z,22.10
2018-06-09T05:30:27.466Z,22.20
2018-06-09T05:32:55.969Z,22.30
2018-06-09T05:35:24.429Z,22.30
2018-06-09T05:37:52.888Z,22.50
2018-06-09T05:40:21.437Z,22.50
2018-06-09T05:42:49.872Z,22.50
2018-06-09T05:45:18.329Z,22.40
2018-06-09T05:47:46.761Z,22.40
2018-06-09T05:50:15.229Z,22.50
2018-06-09T05:52:43.687Z,22.60
2018-06-09T05:55:12.138Z,22.60
2018-06-09T05:57:40.597Z,22.60
2018-06-09T06:00:09.089Z,22.60
2018-06-09T06:02:37.638Z,22.80
2018-06-09T06:05:07.073Z,22.80
2018-06-09T06:07:35.510Z,22.90
2018-06-09T06:10:04.156Z,22.90
2018-06-09T06:12:32.625Z,22.90
2018-06-09T06:15:01.093Z,22.90
2018-06-09T06:17:29.597Z,22.90
2018-06-09T06:19:58.035Z,22.80
2018-06-09T06:22:26.479Z,22.70
2018-06-09T06:24:54.937Z,22.70
2018-06-09T06:27:23.659Z,22.70
2018-06-09T06:29:52.122Z,22.80
2018-06-09T06:32:20.606Z,22.90
2018-06-09T06:37:17.425Z,23.10
2018-06-09T06:39:45.865Z,23.10
2018-06-09T06:42:14.389Z,23.20
2018-06-09T06:44:42.877Z,23.20
2018-06-09T06:47:11.452Z,23.20
2018-06-09T06:49:39.969Z,23.20
2018-06-09T06:52:08.422Z,23.30
2018-06-09T06:54:36.873Z,23.40
2018-06-09T06:57:05.342Z,23.50
2018-06-09T06:59:33.922Z,23.60
2018-06-09T07:02:02.599Z,23.70
2018-06-09T07:04:31.065Z,23.60
2018-06-09T07:06:59.505Z,23.60
2018-06-09T07:09:27.965Z,23.50
2018-06-09T07:11:56.449Z,23.50
2018-06-09T07:14:24.910Z,23.50
2018-06-09T07:16:53.424Z,23.50
2018-06-09T07:19:21.857Z,23.50
2018-06-09T07:21:50.376Z,23.60
2018-06-09T07:24:18.860Z,23.50
2018-06-09T07:26:47.293Z,23.50
2018-06-09T07:31:43.917Z,23.60
2018-06-09T07:34:12.393Z,23.50
2018-06-09T07:36:40.933Z,23.40
2018-06-09T07:39:09.397Z,23.30
2018-06-09T07:44:05.990Z,23.30
2018-06-09T07:46:34.433Z,23.50
2018-06-09T07:49:02.913Z,23.60
2018-06-09T07:51:31.369Z,23.70
2018-06-09T07:53:59.954Z,23.80
2018-06-09T07:56:28.387Z,23.90
2018-06-09T07:58:56.838Z,23.90
2018-06-09T08:01:25.324Z,23.90
2018-06-09T08:06:22.033Z,24.10
2018-06-09T08:08:50.463Z,24.20
2018-06-09T08:11:18.931Z,24.20
2018-06-09T08:13:47.385Z,24.20
2018-06-09T08:16:15.838Z,24.20
2018-06-09T08:18:44.294Z,24.30
2018-06-09T08:21:12.748Z,24.30
2018-06-09T08:23:41.205Z,24.30
2018-06-09T08:26:09.713Z,24.40
2018-06-09T08:28:38.180Z,24.50
2018-06-09T08:31:06.626Z,24.60
2018-06-09T08:33:35.127Z,24.70
2018-06-09T08:36:03.605Z,24.80
2018-06-09T08:38:32.013Z,24.90
2018-06-09T08:41:00.459Z,24.90
2018-06-09T08:43:29.173Z,25.00
2018-06-09T08:45:57.676Z,25.00
2018-06-09T08:48:26.110Z,25.00
2018-06-09T08:50:54.677Z,25.10
2018-06-09T08:53:23.169Z,25.10
2018-06-09T08:55:51.625Z,25.10
2018-06-09T08:58:20.245Z,25.20
2018-06-09T09:00:48.698Z,25.30
2018-06-09T09:03:17.165Z,25.20
2018-06-09T09:05:45.613Z,25.30
2018-06-09T09:08:14.045Z,25.40
2018-06-09T09:10:42.549Z,25.60
2018-06-09T09:13:11.160Z,25.70
2018-06-09T09:15:39.821Z,25.80
2018-06-09T09:18:08.297Z,25.90
2018-06-09T09:20:36.737Z,26.10
2018-06-09T09:23:05.345Z,26.40
2018-06-09T09:25:33.918Z,26.60
2018-06-09T09:28:02.478Z,26.70
2018-06-09T09:30:30.993Z,26.80
2018-06-09T09:32:59.449Z,26.90
2018-06-09T09:35:27.898Z,26.90
2018-06-09T09:37:56.340Z,27.00
2018-06-09T09:40:24.837Z,27.00
2018-06-09T09:42:53.275Z,27.00
2018-06-09T09:45:21.704Z,27.10
2018-06-09T09:47:50.142Z,27.20
2018-06-09T09:50:18.617Z,27.10
2018-06-09T09:52:47.057Z,26.90
2018-06-09T09:55:16.381Z,26.90
2018-06-09T09:57:58.348Z,27.00
2018-06-09T10:00:32.211Z,27.00
2018-06-09T10:03:00.701Z,26.90
2018-06-09T10:05:29.189Z,26.90
2018-06-09T10:07:59.032Z,26.90
2018-06-09T10:10:27.553Z,26.90
2018-06-09T10:12:56.057Z,27.00
2018-06-09T10:15:24.509Z,27.10
2018-06-09T10:20:21.100Z,27.50
2018-06-09T10:22:49.557Z,27.70
2018-06-09T10:25:18.025Z,28.00
2018-06-09T10:30:14.600Z,28.30
2018-06-09T10:32:43.126Z,28.50
2018-06-09T10:35:11.661Z,28.60
2018-06-09T10:37:40.233Z,28.60
2018-06-09T10:40:08.688Z,28.60
2018-06-09T10:42:37.125Z,28.50
2018-06-09T10:45:05.625Z,28.60
2018-06-09T10:47:34.069Z,28.70
2018-06-09T10:50:02.565Z,28.80
2018-06-09T10:52:31.051Z,29.00
2018-06-09T10:54:59.569Z,29.20
2018-06-09T10:57:28.037Z,29.30
2018-06-09T10:59:56.481Z,29.50
2018-06-09T11:02:24.947Z,29.70
2018-06-09T11:04:53.395Z,29.70
2018-06-09T11:07:21.841Z,29.60
2018-06-09T11:09:50.368Z,29.50
2018-06-09T11:12:18.821Z,29.50
2018-06-09T11:14:47.896Z,29.50
